sensor_id;sensor_type;location;lat;lon;timestamp;P1;durP1;ratioP1;P2;durP2;ratioP2
71916;SDS011;59793;46.506;6.674;2022-08-01T00:01:40;2.10;;;1.27;;
71916;SDS011;59793;46.506;6.674;2022-08-01T00:04:05;2.07;;;1.10;;
71916;SDS011;59793;46.506;6.674;2022-08-01T00:06:30;2.40;;;1.03;;
71916;SDS011;59793;46.506;6.674;2022-08-01T00:08:56;1.97;;;1.10;;
71916;SDS011;59793;46.506;6.674;2022-08-01T00:11:21;3.83;;;1.50;;
71916;SDS011;59793;46.506;6.674;2022-08-01T00:13:47;2.53;;;1.23;;
71916;SDS011;59793;46.506;6.674;2022-08-01T00:16:12;5.50;;;1.55;;
71916;SDS011;59793;46.506;6.674;2022-08-01T00:18:38;7.50;;;1.50;;
71916;SDS011;59793;46.506;6.674;2022-08-01T00:21:03;2.87;;;1.20;;
71916;SDS011;59793;46.506;6.674;2022-08-01T00:23:29;2.05;;;1.10;;
71916;SDS011;59793;46.506;6.674;2022-08-01T00:25:55;1.60;;;1.30;;
71916;SDS011;59793;46.506;6.674;2022-08-01T00:28:21;7.23;;;1.90;;
71916;SDS011;59793;46.506;6.674;2022-08-01T00:30:46;3.97;;;1.33;;
71916;SDS011;59793;46.506;6.674;2022-08-01T00:33:11;3.77;;;1.80;;
71916;SDS011;59793;46.506;6.674;2022-08-01T00:35:37;2.40;;;1.43;;
71916;SDS011;59793;46.506;6.674;2022-08-01T00:38:02;1.80;;;1.33;;
71916;SDS011;59793;46.506;6.674;2022-08-01T00:40:27;2.43;;;1.10;;
71916;SDS011;59793;46.506;6.674;2022-08-01T00:42:53;3.70;;;1.60;;
71916;SDS011;59793;46.506;6.674;2022-08-01T00:45:18;2.93;;;1.47;;
71916;SDS011;59793;46.506;6.674;2022-08-01T00:47:44;5.10;;;1.80;;
71916;SDS011;59793;46.506;6.674;2022-08-01T00:50:09;4.00;;;1.50;;
71916;SDS011;59793;46.506;6.674;2022-08-01T00:52:36;3.50;;;1.40;;
71916;SDS011;59793;46.506;6.674;2022-08-01T00:55:02;2.05;;;1.50;;
71916;SDS011;59793;46.506;6.674;2022-08-01T00:57:28;8.23;;;1.80;;
71916;SDS011;59793;46.506;6.674;2022-08-01T00:59:53;2.60;;;1.23;;
71916;SDS011;59793;46.506;6.674;2022-08-01T01:02:18;3.50;;;1.67;;
71916;SDS011;59793;46.506;6.674;2022-08-01T01:04:44;3.70;;;1.57;;
71916;SDS011;59793;46.506;6.674;2022-08-01T01:07:13;4.07;;;1.80;;
71916;SDS011;59793;46.506;6.674;2022-08-01T01:17:55;4.57;;;1.27;;
71916;SDS011;59793;46.506;6.674;2022-08-01T01:20:41;3.45;;;1.30;;
71916;SDS011;59793;46.506;6.674;2022-08-01T01:23:21;3.38;;;1.42;;
71916;SDS011;59793;46.506;6.674;2022-08-01T01:28:29;2.10;;;1.25;;
71916;SDS011;59793;46.506;6.674;2022-08-01T01:30:59;5.57;;;1.90;;
71916;SDS011;59793;46.506;6.674;2022-08-01T01:33:27;2.67;;;1.52;;
71916;SDS011;59793;46.506;6.674;2022-08-01T01:35:57;5.40;;;1.40;;
71916;SDS011;59793;46.506;6.674;2022-08-01T01:38:28;2.88;;;1.38;;
71916;SDS011;59793;46.506;6.674;2022-08-01T01:40:57;2.15;;;1.05;;
71916;SDS011;59793;46.506;6.674;2022-08-01T01:43:24;3.25;;;1.40;;
71916;SDS011;59793;46.506;6.674;2022-08-01T01:45:51;3.33;;;1.65;;
71916;SDS011;59793;46.506;6.674;2022-08-01T01:48:18;2.53;;;1.38;;
71916;SDS011;59793;46.506;6.674;2022-08-01T01:50:47;3.83;;;1.92;;
71916;SDS011;59793;46.506;6.674;2022-08-01T01:53:15;4.85;;;1.40;;
71916;SDS011;59793;46.506;6.674;2022-08-01T01:55:43;3.13;;;1.40;;
71916;SDS011;59793;46.506;6.674;2022-08-01T01:58:12;2.75;;;1.58;;
71916;SDS011;59793;46.506;6.674;2022-08-01T02:00:38;2.13;;;1.50;;
71916;SDS011;59793;46.506;6.674;2022-08-01T02:03:06;5.47;;;1.23;;
71916;SDS011;59793;46.506;6.674;2022-08-01T02:05:33;2.35;;;1.40;;
71916;SDS011;59793;46.506;6.674;2022-08-01T02:08:02;2.55;;;1.63;;
71916;SDS011;59793;46.506;6.674;2022-08-01T02:10:29;2.97;;;1.30;;
71916;SDS011;59793;46.506;6.674;2022-08-01T02:12:57;3.25;;;1.38;;
71916;SDS011;59793;46.506;6.674;2022-08-01T02:15:24;2.20;;;1.40;;
71916;SDS011;59793;46.506;6.674;2022-08-01T02:17:53;3.28;;;1.33;;
71916;SDS011;59793;46.506;6.674;2022-08-01T02:20:21;2.13;;;1.30;;
71916;SDS011;59793;46.506;6.674;2022-08-01T02:22:48;2.57;;;1.27;;
71916;SDS011;59793;46.506;6.674;2022-08-01T02:28:13;4.32;;;1.30;;
71916;SDS011;59793;46.506;6.674;2022-08-01T02:30:43;3.42;;;1.45;;
71916;SDS011;59793;46.506;6.674;2022-08-01T02:33:14;5.63;;;1.52;;
71916;SDS011;59793;46.506;6.674;2022-08-01T02:35:48;2.25;;;1.30;;
71916;SDS011;59793;46.506;6.674;2022-08-01T02:38:16;1.77;;;1.20;;
71916;SDS011;59793;46.506;6.674;2022-08-01T02:43:10;2.67;;;1.57;;
71916;SDS011;59793;46.506;6.674;2022-08-01T02:45:39;4.70;;;1.40;;
71916;SDS011;59793;46.506;6.674;2022-08-01T02:48:09;4.95;;;1.52;;
71916;SDS011;59793;46.506;6.674;2022-08-01T02:50:38;2.45;;;1.02;;
71916;SDS011;59793;46.506;6.674;2022-08-01T02:53:06;2.45;;;1.55;;
71916;SDS011;59793;46.506;6.674;2022-08-01T02:55:35;3.20;;;1.48;;
71916;SDS011;59793;46.506;6.674;2022-08-01T02:58:03;4.75;;;1.40;;
71916;SDS011;59793;46.506;6.674;2022-08-01T03:00:31;4.72;;;1.63;;
71916;SDS011;59793;46.506;6.674;2022-08-01T03:02:58;4.50;;;1.40;;
71916;SDS011;59793;46.506;6.674;2022-08-01T03:05:26;3.40;;;1.40;;
71916;SDS011;59793;46.506;6.674;2022-08-01T03:07:52;4.00;;;1.50;;
71916;SDS011;59793;46.506;6.674;2022-08-01T03:10:20;5.97;;;1.40;;
71916;SDS011;59793;46.506;6.674;2022-08-01T03:12:46;4.80;;;1.35;;
71916;SDS011;59793;46.506;6.674;2022-08-01T03:15:14;6.13;;;1.58;;
71916;SDS011;59793;46.506;6.674;2022-08-01T03:17:41;5.20;;;1.30;;
71916;SDS011;59793;46.506;6.674;2022-08-01T03:20:09;5.80;;;1.52;;
71916;SDS011;59793;46.506;6.674;2022-08-01T03:22:37;4.65;;;1.98;;
71916;SDS011;59793;46.506;6.674;2022-08-01T03:25:04;6.40;;;1.38;;
71916;SDS011;59793;46.506;6.674;2022-08-01T03:27:31;3.50;;;1.33;;
71916;SDS011;59793;46.506;6.674;2022-08-01T03:32:23;1.88;;;1.20;;
71916;SDS011;59793;46.506;6.674;2022-08-01T03:34:51;5.30;;;1.50;;
71916;SDS011;59793;46.506;6.674;2022-08-01T03:40:03;3.33;;;1.50;;
71916;SDS011;59793;46.506;6.674;2022-08-01T03:42:37;2.90;;;1.63;;
71916;SDS011;59793;46.506;6.674;2022-08-01T03:45:07;3.28;;;1.38;;
71916;SDS011;59793;46.506;6.674;2022-08-01T03:47:35;2.65;;;1.40;;
71916;SDS011;59793;46.506;6.674;2022-08-01T03:50:03;3.63;;;1.30;;
71916;SDS011;59793;46.506;6.674;2022-08-01T03:52:30;3.65;;;1.52;;
71916;SDS011;59793;46.506;6.674;2022-08-01T03:54:59;6.93;;;1.75;;
71916;SDS011;59793;46.506;6.674;2022-08-01T03:57:28;7.15;;;1.70;;
71916;SDS011;59793;46.506;6.674;2022-08-01T03:59:55;2.65;;;1.65;;
71916;SDS011;59793;46.506;6.674;2022-08-01T04:02:22;1.80;;;1.33;;
71916;SDS011;59793;46.506;6.674;2022-08-01T04:04:48;1.95;;;1.20;;
71916;SDS011;59793;46.506;6.674;2022-08-01T04:07:21;3.30;;;1.42;;
71916;SDS011;59793;46.506;6.674;2022-08-01T04:09:50;3.42;;;1.15;;
71916;SDS011;59793;46.506;6.674;2022-08-01T04:12:16;1.98;;;1.23;;
71916;SDS011;59793;46.506;6.674;2022-08-01T04:14:42;3.90;;;1.48;;
71916;SDS011;59793;46.506;6.674;2022-08-01T04:17:08;2.58;;;1.38;;
71916;SDS011;59793;46.506;6.674;2022-08-01T04:19:33;2.90;;;1.63;;
71916;SDS011;59793;46.506;6.674;2022-08-01T04:21:59;2.90;;;1.60;;
71916;SDS011;59793;46.506;6.674;2022-08-01T04:24:24;1.85;;;1.20;;
71916;SDS011;59793;46.506;6.674;2022-08-01T04:26:54;2.53;;;1.17;;
71916;SDS011;59793;46.506;6.674;2022-08-01T04:29:22;4.28;;;1.50;;
71916;SDS011;59793;46.506;6.674;2022-08-01T04:31:49;3.40;;;1.17;;
71916;SDS011;59793;46.506;6.674;2022-08-01T04:34:16;4.47;;;1.40;;
71916;SDS011;59793;46.506;6.674;2022-08-01T04:36:45;2.60;;;1.40;;
71916;SDS011;59793;46.506;6.674;2022-08-01T04:39:11;1.10;;;1.00;;
71916;SDS011;59793;46.506;6.674;2022-08-01T04:41:38;2.35;;;1.42;;
71916;SDS011;59793;46.506;6.674;2022-08-01T04:44:05;4.65;;;1.52;;
71916;SDS011;59793;46.506;6.674;2022-08-01T04:46:31;11.05;;;2.70;;
71916;SDS011;59793;46.506;6.674;2022-08-01T04:48:59;3.83;;;1.52;;
71916;SDS011;59793;46.506;6.674;2022-08-01T04:51:25;5.35;;;1.38;;
71916;SDS011;59793;46.506;6.674;2022-08-01T04:53:51;3.03;;;1.27;;
71916;SDS011;59793;46.506;6.674;2022-08-01T04:56:17;5.43;;;1.77;;
71916;SDS011;59793;46.506;6.674;2022-08-01T04:58:44;2.45;;;1.30;;
71916;SDS011;59793;46.506;6.674;2022-08-01T05:01:09;4.03;;;2.10;;
71916;SDS011;59793;46.506;6.674;2022-08-01T05:03:35;2.33;;;1.58;;
71916;SDS011;59793;46.506;6.674;2022-08-01T05:06:01;5.57;;;1.67;;
71916;SDS011;59793;46.506;6.674;2022-08-01T05:08:26;4.73;;;1.60;;
71916;SDS011;59793;46.506;6.674;2022-08-01T05:10:52;4.40;;;1.60;;
71916;SDS011;59793;46.506;6.674;2022-08-01T05:13:17;3.37;;;1.50;;
71916;SDS011;59793;46.506;6.674;2022-08-01T05:15:43;5.32;;;2.22;;
71916;SDS011;59793;46.506;6.674;2022-08-01T05:18:09;3.77;;;1.63;;
71916;SDS011;59793;46.506;6.674;2022-08-01T05:20:34;3.23;;;1.33;;
71916;SDS011;59793;46.506;6.674;2022-08-01T05:23:00;2.20;;;1.23;;
71916;SDS011;59793;46.506;6.674;2022-08-01T05:25:25;2.93;;;1.23;;
71916;SDS011;59793;46.506;6.674;2022-08-01T05:27:50;3.30;;;1.30;;
71916;SDS011;59793;46.506;6.674;2022-08-01T05:30:16;2.63;;;1.77;;
71916;SDS011;59793;46.506;6.674;2022-08-01T05:32:41;3.87;;;1.57;;
71916;SDS011;59793;46.506;6.674;2022-08-01T05:35:07;4.43;;;1.70;;
71916;SDS011;59793;46.506;6.674;2022-08-01T05:37:33;1.38;;;1.10;;
71916;SDS011;59793;46.506;6.674;2022-08-01T05:39:58;2.27;;;1.37;;
71916;SDS011;59793;46.506;6.674;2022-08-01T05:42:24;3.03;;;1.47;;
71916;SDS011;59793;46.506;6.674;2022-08-01T05:44:49;2.10;;;1.20;;
71916;SDS011;59793;46.506;6.674;2022-08-01T05:47:15;4.20;;;1.25;;
71916;SDS011;59793;46.506;6.674;2022-08-01T05:49:41;2.42;;;1.45;;
71916;SDS011;59793;46.506;6.674;2022-08-01T05:52:07;2.07;;;1.40;;
71916;SDS011;59793;46.506;6.674;2022-08-01T05:54:32;3.07;;;1.13;;
71916;SDS011;59793;46.506;6.674;2022-08-01T05:56:58;5.10;;;1.70;;
71916;SDS011;59793;46.506;6.674;2022-08-01T05:59:26;3.08;;;1.27;;
71916;SDS011;59793;46.506;6.674;2022-08-01T06:01:52;2.47;;;1.40;;
71916;SDS011;59793;46.506;6.674;2022-08-01T06:04:17;4.33;;;1.60;;
71916;SDS011;59793;46.506;6.674;2022-08-01T06:06:43;2.03;;;1.27;;
71916;SDS011;59793;46.506;6.674;2022-08-01T06:09:08;2.33;;;1.40;;
71916;SDS011;59793;46.506;6.674;2022-08-01T06:11:33;2.97;;;1.30;;
71916;SDS011;59793;46.506;6.674;2022-08-01T06:13:59;3.67;;;1.40;;
71916;SDS011;59793;46.506;6.674;2022-08-01T06:16:24;1.90;;;1.30;;
71916;SDS011;59793;46.506;6.674;2022-08-01T06:18:50;2.03;;;1.60;;
71916;SDS011;59793;46.506;6.674;2022-08-01T06:21:15;3.33;;;1.40;;
71916;SDS011;59793;46.506;6.674;2022-08-01T06:23:41;2.80;;;1.33;;
71916;SDS011;59793;46.506;6.674;2022-08-01T06:28:32;4.40;;;1.80;;
71916;SDS011;59793;46.506;6.674;2022-08-01T06:30:58;2.13;;;1.27;;
71916;SDS011;59793;46.506;6.674;2022-08-01T06:33:24;2.13;;;1.60;;
71916;SDS011;59793;46.506;6.674;2022-08-01T06:35:49;2.47;;;1.42;;
71916;SDS011;59793;46.506;6.674;2022-08-01T06:38:15;2.73;;;1.40;;
71916;SDS011;59793;46.506;6.674;2022-08-01T06:40:40;3.83;;;1.37;;
71916;SDS011;59793;46.506;6.674;2022-08-01T06:43:06;2.43;;;1.10;;
71916;SDS011;59793;46.506;6.674;2022-08-01T06:45:31;2.87;;;1.40;;
71916;SDS011;59793;46.506;6.674;2022-08-01T06:47:56;5.90;;;1.60;;
71916;SDS011;59793;46.506;6.674;2022-08-01T06:50:22;4.73;;;1.57;;
71916;SDS011;59793;46.506;6.674;2022-08-01T06:52:47;4.97;;;1.53;;
71916;SDS011;59793;46.506;6.674;2022-08-01T06:55:13;2.83;;;1.40;;
71916;SDS011;59793;46.506;6.674;2022-08-01T06:57:45;2.63;;;1.65;;
71916;SDS011;59793;46.506;6.674;2022-08-01T07:00:12;2.58;;;1.52;;
71916;SDS011;59793;46.506;6.674;2022-08-01T07:02:38;5.20;;;1.50;;
71916;SDS011;59793;46.506;6.674;2022-08-01T07:05:03;8.33;;;1.70;;
71916;SDS011;59793;46.506;6.674;2022-08-01T07:07:29;5.57;;;3.17;;
71916;SDS011;59793;46.506;6.674;2022-08-01T07:09:55;4.97;;;1.67;;
71916;SDS011;59793;46.506;6.674;2022-08-01T07:12:21;3.23;;;1.80;;
71916;SDS011;59793;46.506;6.674;2022-08-01T07:14:46;5.30;;;1.40;;
71916;SDS011;59793;46.506;6.674;2022-08-01T07:17:12;3.23;;;1.43;;
71916;SDS011;59793;46.506;6.674;2022-08-01T07:19:37;3.63;;;1.70;;
71916;SDS011;59793;46.506;6.674;2022-08-01T07:22:02;6.03;;;1.83;;
71916;SDS011;59793;46.506;6.674;2022-08-01T07:24:28;5.10;;;1.67;;
71916;SDS011;59793;46.506;6.674;2022-08-01T07:26:54;3.17;;;1.92;;
71916;SDS011;59793;46.506;6.674;2022-08-01T07:29:23;4.57;;;2.03;;
71916;SDS011;59793;46.506;6.674;2022-08-01T07:31:49;2.85;;;1.48;;
71916;SDS011;59793;46.506;6.674;2022-08-01T07:34:15;4.75;;;1.58;;
71916;SDS011;59793;46.506;6.674;2022-08-01T07:36:40;5.33;;;1.73;;
71916;SDS011;59793;46.506;6.674;2022-08-01T07:39:06;2.80;;;1.50;;
71916;SDS011;59793;46.506;6.674;2022-08-01T07:41:31;3.10;;;2.17;;
71916;SDS011;59793;46.506;6.674;2022-08-01T07:43:56;4.53;;;1.70;;
71916;SDS011;59793;46.506;6.674;2022-08-01T07:46:22;3.60;;;1.80;;
71916;SDS011;59793;46.506;6.674;2022-08-01T07:48:47;3.03;;;1.50;;
71916;SDS011;59793;46.506;6.674;2022-08-01T07:51:12;3.97;;;1.60;;
71916;SDS011;59793;46.506;6.674;2022-08-01T07:53:38;6.80;;;1.63;;
71916;SDS011;59793;46.506;6.674;2022-08-01T07:56:04;8.20;;;1.90;;
71916;SDS011;59793;46.506;6.674;2022-08-01T07:58:32;2.83;;;1.80;;
71916;SDS011;59793;46.506;6.674;2022-08-01T08:03:23;5.47;;;2.10;;
71916;SDS011;59793;46.506;6.674;2022-08-01T08:05:49;4.82;;;1.80;;
71916;SDS011;59793;46.506;6.674;2022-08-01T08:08:14;6.67;;;1.90;;
71916;SDS011;59793;46.506;6.674;2022-08-01T08:10:42;4.50;;;2.15;;
71916;SDS011;59793;46.506;6.674;2022-08-01T08:13:07;6.03;;;1.90;;
71916;SDS011;59793;46.506;6.674;2022-08-01T08:15:32;5.60;;;1.57;;
71916;SDS011;59793;46.506;6.674;2022-08-01T08:17:58;3.83;;;1.70;;
71916;SDS011;59793;46.506;6.674;2022-08-01T08:20:23;3.73;;;1.77;;
71916;SDS011;59793;46.506;6.674;2022-08-01T08:22:52;7.05;;;1.67;;
71916;SDS011;59793;46.506;6.674;2022-08-01T08:25:17;4.97;;;1.52;;
71916;SDS011;59793;46.506;6.674;2022-08-01T08:27:46;5.00;;;1.83;;
71916;SDS011;59793;46.506;6.674;2022-08-01T08:30:12;2.97;;;1.63;;
71916;SDS011;59793;46.506;6.674;2022-08-01T08:32:38;2.83;;;1.60;;
71916;SDS011;59793;46.506;6.674;2022-08-01T08:37:30;3.88;;;1.75;;
71916;SDS011;59793;46.506;6.674;2022-08-01T08:39:56;2.37;;;1.20;;
71916;SDS011;59793;46.506;6.674;2022-08-01T08:42:21;2.00;;;1.50;;
71916;SDS011;59793;46.506;6.674;2022-08-01T08:44:47;8.35;;;1.40;;
71916;SDS011;59793;46.506;6.674;2022-08-01T08:47:13;4.10;;;1.47;;
71916;SDS011;59793;46.506;6.674;2022-08-01T08:49:40;1.55;;;1.20;;
71916;SDS011;59793;46.506;6.674;2022-08-01T08:52:07;5.28;;;1.70;;
71916;SDS011;59793;46.506;6.674;2022-08-01T08:54:34;5.82;;;1.90;;
71916;SDS011;59793;46.506;6.674;2022-08-01T08:57:01;1.95;;;1.67;;
71916;SDS011;59793;46.506;6.674;2022-08-01T08:59:28;4.43;;;1.50;;
71916;SDS011;59793;46.506;6.674;2022-08-01T09:04:20;5.10;;;1.67;;
71916;SDS011;59793;46.506;6.674;2022-08-01T09:06:49;2.97;;;2.13;;
71916;SDS011;59793;46.506;6.674;2022-08-01T09:09:15;3.77;;;1.97;;
71916;SDS011;59793;46.506;6.674;2022-08-01T09:11:40;6.47;;;1.70;;
71916;SDS011;59793;46.506;6.674;2022-08-01T09:14:07;3.83;;;1.90;;
71916;SDS011;59793;46.506;6.674;2022-08-01T09:16:37;4.15;;;2.10;;
71916;SDS011;59793;46.506;6.674;2022-08-01T09:19:09;3.83;;;2.20;;
71916;SDS011;59793;46.506;6.674;2022-08-01T09:21:37;4.88;;;1.67;;
71916;SDS011;59793;46.506;6.674;2022-08-01T09:24:04;4.25;;;2.00;;
71916;SDS011;59793;46.506;6.674;2022-08-01T09:26:37;4.70;;;1.75;;
71916;SDS011;59793;46.506;6.674;2022-08-01T09:29:06;3.70;;;2.07;;
71916;SDS011;59793;46.506;6.674;2022-08-01T09:31:42;4.63;;;1.45;;
71916;SDS011;59793;46.506;6.674;2022-08-01T09:34:12;5.03;;;1.67;;
71916;SDS011;59793;46.506;6.674;2022-08-01T09:36:48;4.43;;;2.00;;
71916;SDS011;59793;46.506;6.674;2022-08-01T09:39:20;6.20;;;1.88;;
71916;SDS011;59793;46.506;6.674;2022-08-01T09:41:47;5.80;;;1.70;;
71916;SDS011;59793;46.506;6.674;2022-08-01T09:44:14;4.35;;;1.50;;
71916;SDS011;59793;46.506;6.674;2022-08-01T09:47:15;2.80;;;1.52;;
71916;SDS011;59793;46.506;6.674;2022-08-01T09:49:35;3.88;;;1.73;;
71916;SDS011;59793;46.506;6.674;2022-08-01T09:52:12;2.55;;;1.50;;
71916;SDS011;59793;46.506;6.674;2022-08-01T09:54:39;3.70;;;1.65;;
71916;SDS011;59793;46.506;6.674;2022-08-01T09:57:15;3.95;;;1.65;;
71916;SDS011;59793;46.506;6.674;2022-08-01T09:59:43;2.67;;;1.48;;
71916;SDS011;59793;46.506;6.674;2022-08-01T10:02:13;5.15;;;1.92;;
71916;SDS011;59793;46.506;6.674;2022-08-01T10:04:47;3.08;;;1.58;;
71916;SDS011;59793;46.506;6.674;2022-08-01T10:07:13;3.70;;;1.50;;
71916;SDS011;59793;46.506;6.674;2022-08-01T10:09:41;5.47;;;2.05;;
71916;SDS011;59793;46.506;6.674;2022-08-01T10:12:07;2.85;;;1.52;;
71916;SDS011;59793;46.506;6.674;2022-08-01T10:14:34;2.00;;;1.40;;
71916;SDS011;59793;46.506;6.674;2022-08-01T10:17:01;3.50;;;1.38;;
71916;SDS011;59793;46.506;6.674;2022-08-01T10:19:28;2.88;;;1.80;;
71916;SDS011;59793;46.506;6.674;2022-08-01T10:21:55;5.00;;;1.60;;
71916;SDS011;59793;46.506;6.674;2022-08-01T10:24:21;4.53;;;1.73;;
71916;SDS011;59793;46.506;6.674;2022-08-01T10:26:48;2.67;;;1.70;;
71916;SDS011;59793;46.506;6.674;2022-08-01T10:29:18;4.28;;;1.42;;
71916;SDS011;59793;46.506;6.674;2022-08-01T10:31:45;4.60;;;1.45;;
71916;SDS011;59793;46.506;6.674;2022-08-01T10:34:12;2.58;;;1.70;;
71916;SDS011;59793;46.506;6.674;2022-08-01T10:36:40;1.60;;;1.20;;
71916;SDS011;59793;46.506;6.674;2022-08-01T10:39:07;6.07;;;1.70;;
71916;SDS011;59793;46.506;6.674;2022-08-01T10:41:35;3.92;;;1.33;;
71916;SDS011;59793;46.506;6.674;2022-08-01T10:44:02;6.07;;;1.65;;
71916;SDS011;59793;46.506;6.674;2022-08-01T10:48:57;2.38;;;1.35;;
71916;SDS011;59793;46.506;6.674;2022-08-01T10:51:26;2.30;;;1.30;;
71916;SDS011;59793;46.506;6.674;2022-08-01T10:53:53;3.70;;;2.00;;
71916;SDS011;59793;46.506;6.674;2022-08-01T10:56:19;2.78;;;1.70;;
71916;SDS011;59793;46.506;6.674;2022-08-01T10:58:46;2.75;;;1.52;;
71916;SDS011;59793;46.506;6.674;2022-08-01T11:01:14;3.95;;;1.73;;
71916;SDS011;59793;46.506;6.674;2022-08-01T11:03:40;5.65;;;1.75;;
71916;SDS011;59793;46.506;6.674;2022-08-01T11:06:06;3.88;;;1.77;;
71916;SDS011;59793;46.506;6.674;2022-08-01T11:08:42;3.33;;;1.73;;
71916;SDS011;59793;46.506;6.674;2022-08-01T11:11:15;3.42;;;1.98;;
71916;SDS011;59793;46.506;6.674;2022-08-01T11:16:29;4.78;;;1.77;;
71916;SDS011;59793;46.506;6.674;2022-08-01T11:18:58;3.53;;;1.67;;
71916;SDS011;59793;46.506;6.674;2022-08-01T11:24:07;3.03;;;1.33;;
71916;SDS011;59793;46.506;6.674;2022-08-01T11:29:31;5.17;;;1.53;;
71916;SDS011;59793;46.506;6.674;2022-08-01T11:31:50;2.38;;;1.10;;
71916;SDS011;59793;46.506;6.674;2022-08-01T11:34:16;3.60;;;1.13;;
71916;SDS011;59793;46.506;6.674;2022-08-01T11:44:00;9.43;;;1.70;;
71916;SDS011;59793;46.506;6.674;2022-08-01T11:46:46;3.25;;;1.10;;
71916;SDS011;59793;46.506;6.674;2022-08-01T11:49:33;1.65;;;1.10;;
71916;SDS011;59793;46.506;6.674;2022-08-01T11:52:12;4.38;;;1.17;;
71916;SDS011;59793;46.506;6.674;2022-08-01T11:54:53;2.67;;;0.95;;
71916;SDS011;59793;46.506;6.674;2022-08-01T11:57:19;2.63;;;1.13;;
71916;SDS011;59793;46.506;6.674;2022-08-01T11:59:47;2.40;;;1.02;;
71916;SDS011;59793;46.506;6.674;2022-08-01T12:02:27;3.45;;;1.23;;
71916;SDS011;59793;46.506;6.674;2022-08-01T12:04:58;4.13;;;1.10;;
71916;SDS011;59793;46.506;6.674;2022-08-01T12:07:26;1.58;;;0.93;;
71916;SDS011;59793;46.506;6.674;2022-08-01T12:12:45;2.78;;;1.05;;
71916;SDS011;59793;46.506;6.674;2022-08-01T12:15:13;3.53;;;1.42;;
71916;SDS011;59793;46.506;6.674;2022-08-01T12:17:41;1.58;;;0.70;;
71916;SDS011;59793;46.506;6.674;2022-08-01T12:20:09;2.60;;;1.13;;
71916;SDS011;59793;46.506;6.674;2022-08-01T12:22:36;1.98;;;0.95;;
71916;SDS011;59793;46.506;6.674;2022-08-01T12:43:09;3.80;;;1.27;;
71916;SDS011;59793;46.506;6.674;2022-08-01T13:11:13;1.30;;;0.90;;
71916;SDS011;59793;46.506;6.674;2022-08-01T13:13:43;2.20;;;1.00;;
71916;SDS011;59793;46.506;6.674;2022-08-01T13:16:13;2.25;;;0.73;;
71916;SDS011;59793;46.506;6.674;2022-08-01T13:18:38;3.38;;;0.70;;
71916;SDS011;59793;46.506;6.674;2022-08-01T13:23:41;1.58;;;0.75;;
71916;SDS011;59793;46.506;6.674;2022-08-01T13:26:43;1.67;;;0.68;;
71916;SDS011;59793;46.506;6.674;2022-08-01T13:29:11;2.58;;;0.98;;
71916;SDS011;59793;46.506;6.674;2022-08-01T13:31:38;1.58;;;0.80;;
71916;SDS011;59793;46.506;6.674;2022-08-01T13:34:04;2.05;;;0.70;;
71916;SDS011;59793;46.506;6.674;2022-08-01T13:36:30;1.38;;;0.80;;
71916;SDS011;59793;46.506;6.674;2022-08-01T13:38:59;1.85;;;1.00;;
71916;SDS011;59793;46.506;6.674;2022-08-01T13:41:43;1.05;;;0.60;;
71916;SDS011;59793;46.506;6.674;2022-08-01T13:44:09;3.25;;;0.85;;
71916;SDS011;59793;46.506;6.674;2022-08-01T13:46:36;2.42;;;1.13;;
71916;SDS011;59793;46.506;6.674;2022-08-01T13:49:03;2.05;;;1.00;;
71916;SDS011;59793;46.506;6.674;2022-08-01T13:51:29;3.58;;;1.15;;
71916;SDS011;59793;46.506;6.674;2022-08-01T13:53:55;1.33;;;0.70;;
71916;SDS011;59793;46.506;6.674;2022-08-01T13:56:20;3.20;;;0.85;;
71916;SDS011;59793;46.506;6.674;2022-08-01T13:58:45;2.28;;;0.77;;
71916;SDS011;59793;46.506;6.674;2022-08-01T14:01:11;2.47;;;1.13;;
71916;SDS011;59793;46.506;6.674;2022-08-01T14:03:37;2.90;;;1.20;;
71916;SDS011;59793;46.506;6.674;2022-08-01T14:06:02;2.45;;;1.30;;
71916;SDS011;59793;46.506;6.674;2022-08-01T14:08:28;3.13;;;1.40;;
71916;SDS011;59793;46.506;6.674;2022-08-01T14:10:53;1.85;;;1.10;;
71916;SDS011;59793;46.506;6.674;2022-08-01T14:13:22;1.55;;;0.85;;
71916;SDS011;59793;46.506;6.674;2022-08-01T14:15:47;2.47;;;1.10;;
71916;SDS011;59793;46.506;6.674;2022-08-01T14:18:13;1.88;;;0.80;;
71916;SDS011;59793;46.506;6.674;2022-08-01T14:20:38;1.45;;;0.80;;
71916;SDS011;59793;46.506;6.674;2022-08-01T14:23:04;4.63;;;0.80;;
71916;SDS011;59793;46.506;6.674;2022-08-01T14:25:30;0.88;;;0.57;;
71916;SDS011;59793;46.506;6.674;2022-08-01T14:27:55;1.48;;;0.60;;
71916;SDS011;59793;46.506;6.674;2022-08-01T14:30:20;2.33;;;1.00;;
71916;SDS011;59793;46.506;6.674;2022-08-01T14:32:46;1.25;;;0.70;;
71916;SDS011;59793;46.506;6.674;2022-08-01T14:35:12;3.55;;;1.10;;
71916;SDS011;59793;46.506;6.674;2022-08-01T14:37:37;2.53;;;1.00;;
71916;SDS011;59793;46.506;6.674;2022-08-01T14:40:02;1.63;;;1.20;;
71916;SDS011;59793;46.506;6.674;2022-08-01T14:42:32;4.85;;;1.02;;
71916;SDS011;59793;46.506;6.674;2022-08-01T14:44:57;1.92;;;0.90;;
71916;SDS011;59793;46.506;6.674;2022-08-01T14:47:23;1.88;;;0.90;;
71916;SDS011;59793;46.506;6.674;2022-08-01T14:49:49;1.60;;;1.02;;
71916;SDS011;59793;46.506;6.674;2022-08-01T14:52:15;2.85;;;0.88;;
71916;SDS011;59793;46.506;6.674;2022-08-01T14:54:40;4.70;;;0.90;;
71916;SDS011;59793;46.506;6.674;2022-08-01T14:57:06;2.78;;;1.00;;
71916;SDS011;59793;46.506;6.674;2022-08-01T14:59:31;2.17;;;0.80;;
71916;SDS011;59793;46.506;6.674;2022-08-01T15:01:56;2.92;;;0.90;;
71916;SDS011;59793;46.506;6.674;2022-08-01T15:04:22;2.78;;;1.05;;
71916;SDS011;59793;46.506;6.674;2022-08-01T15:06:47;4.72;;;0.85;;
71916;SDS011;59793;46.506;6.674;2022-08-01T15:09:13;4.25;;;1.05;;
71916;SDS011;59793;46.506;6.674;2022-08-01T15:11:38;3.33;;;1.10;;
71916;SDS011;59793;46.506;6.674;2022-08-01T15:14:03;3.22;;;0.93;;
71916;SDS011;59793;46.506;6.674;2022-08-01T15:16:47;1.60;;;1.00;;
71916;SDS011;59793;46.506;6.674;2022-08-01T15:19:12;1.08;;;0.90;;
71916;SDS011;59793;46.506;6.674;2022-08-01T15:21:38;1.77;;;1.05;;
71916;SDS011;59793;46.506;6.674;2022-08-01T15:24:04;1.92;;;0.80;;
71916;SDS011;59793;46.506;6.674;2022-08-01T15:26:29;3.20;;;1.42;;
71916;SDS011;59793;46.506;6.674;2022-08-01T15:28:55;1.30;;;0.98;;
71916;SDS011;59793;46.506;6.674;2022-08-01T15:31:20;1.77;;;0.80;;
71916;SDS011;59793;46.506;6.674;2022-08-01T15:33:45;3.63;;;1.17;;
71916;SDS011;59793;46.506;6.674;2022-08-01T15:36:11;4.45;;;0.80;;
71916;SDS011;59793;46.506;6.674;2022-08-01T15:38:36;1.58;;;0.82;;
71916;SDS011;59793;46.506;6.674;2022-08-01T15:41:01;1.23;;;0.77;;
71916;SDS011;59793;46.506;6.674;2022-08-01T15:43:27;2.70;;;1.15;;
71916;SDS011;59793;46.506;6.674;2022-08-01T15:45:52;1.30;;;0.90;;
71916;SDS011;59793;46.506;6.674;2022-08-01T15:48:18;3.05;;;0.77;;
71916;SDS011;59793;46.506;6.674;2022-08-01T15:50:43;5.30;;;0.98;;
71916;SDS011;59793;46.506;6.674;2022-08-01T15:53:09;1.63;;;0.90;;
71916;SDS011;59793;46.506;6.674;2022-08-01T15:55:35;4.80;;;1.20;;
71916;SDS011;59793;46.506;6.674;2022-08-01T15:58:02;1.10;;;0.85;;
71916;SDS011;59793;46.506;6.674;2022-08-01T16:00:28;1.17;;;0.77;;
71916;SDS011;59793;46.506;6.674;2022-08-01T16:02:53;2.95;;;1.15;;
71916;SDS011;59793;46.506;6.674;2022-08-01T16:05:20;2.33;;;1.23;;
71916;SDS011;59793;46.506;6.674;2022-08-01T16:07:46;2.25;;;1.10;;
71916;SDS011;59793;46.506;6.674;2022-08-01T16:10:11;2.30;;;0.77;;
71916;SDS011;59793;46.506;6.674;2022-08-01T16:12:37;1.92;;;0.77;;
71916;SDS011;59793;46.506;6.674;2022-08-01T16:15:02;2.15;;;0.85;;
71916;SDS011;59793;46.506;6.674;2022-08-01T16:17:28;2.05;;;0.95;;
71916;SDS011;59793;46.506;6.674;2022-08-01T16:19:53;1.55;;;0.85;;
71916;SDS011;59793;46.506;6.674;2022-08-01T16:22:19;4.45;;;0.85;;
71916;SDS011;59793;46.506;6.674;2022-08-01T16:24:44;4.45;;;0.88;;
71916;SDS011;59793;46.506;6.674;2022-08-01T16:27:09;3.88;;;1.10;;